createdAt,value
2019-01-22T00:02:13.645Z,1.35
2019-01-22T00:04:43.094Z,0.90
2019-01-22T00:07:12.549Z,0.70
2019-01-22T00:09:42.473Z,0.70
2019-01-22T00:12:12.705Z,0.72
2019-01-22T00:14:42.209Z,2.10
2019-01-22T00:17:11.521Z,1.70
2019-01-22T00:19:41.035Z,0.80
2019-01-22T00:22:10.385Z,0.85
2019-01-22T00:24:39.749Z,2.57
2019-01-22T00:27:09.297Z,4.12
2019-01-22T00:29:38.697Z,2.50
2019-01-22T00:32:10.427Z,0.88
2019-01-22T00:34:39.885Z,1.00
2019-01-22T00:37:09.185Z,0.90
2019-01-22T00:39:38.623Z,0.80
2019-01-22T00:42:09.832Z,0.90
2019-01-22T00:44:39.252Z,0.90
2019-01-22T00:47:15.266Z,0.82
2019-01-22T00:49:44.752Z,0.80
2019-01-22T00:52:14.230Z,0.90
2019-01-22T00:54:43.784Z,0.90
2019-01-22T00:57:15.225Z,0.80
2019-01-22T00:59:48.829Z,0.80
2019-01-22T01:02:18.233Z,0.70
2019-01-22T01:04:47.608Z,3.30
2019-01-22T01:07:16.933Z,0.70
2019-01-22T01:09:46.334Z,0.70
2019-01-22T01:12:15.705Z,2.40
2019-01-22T01:14:45.050Z,1.80
2019-01-22T01:17:14.453Z,1.17
2019-01-22T01:19:43.850Z,1.73
2019-01-22T01:22:13.321Z,0.70
2019-01-22T01:24:42.785Z,0.60
2019-01-22T01:27:12.467Z,0.70
2019-01-22T01:29:41.930Z,0.70
2019-01-22T01:32:11.324Z,0.70
2019-01-22T01:34:40.782Z,2.27
2019-01-22T01:37:10.071Z,0.70
2019-01-22T01:39:39.437Z,1.00
2019-01-22T01:42:08.792Z,0.70
2019-01-22T01:44:38.119Z,0.70
2019-01-22T01:47:07.456Z,1.12
2019-01-22T01:49:37.666Z,1.50
2019-01-22T01:52:07.061Z,0.70
2019-01-22T01:54:52.077Z,2.23
2019-01-22T01:57:21.524Z,1.70
2019-01-22T01:59:50.829Z,4.60
2019-01-22T02:02:20.307Z,0.70
2019-01-22T02:04:50.091Z,0.70
2019-01-22T02:07:19.376Z,1.32
2019-01-22T02:09:48.697Z,0.90
2019-01-22T02:12:23.901Z,2.45
2019-01-22T02:14:58.213Z,0.70
2019-01-22T02:17:39.855Z,0.90
2019-01-22T02:20:41.151Z,3.50
2019-01-22T02:23:33.372Z,0.75
2019-01-22T02:26:41.501Z,0.70
2019-01-22T02:29:40.525Z,6.83
2019-01-22T02:32:56.305Z,0.70
2019-01-22T02:35:59.557Z,0.70
2019-01-22T02:39:09.380Z,0.70
2019-01-22T02:42:00.688Z,0.70
2019-01-22T02:45:23.473Z,0.70
2019-01-22T02:48:37.196Z,2.10
2019-01-22T02:51:36.266Z,2.27
2019-01-22T02:54:33.649Z,0.70
2019-01-22T02:57:50.501Z,8.70
2019-01-22T03:00:54.504Z,1.90
2019-01-22T03:04:13.631Z,0.80
2019-01-22T03:07:23.645Z,1.85
2019-01-22T03:10:17.730Z,2.73
2019-01-22T03:13:18.375Z,1.22
2019-01-22T03:16:39.441Z,0.98
2019-01-22T03:19:45.811Z,2.15
2019-01-22T03:22:46.613Z,1.92
2019-01-22T03:25:34.164Z,0.70
2019-01-22T03:28:53.041Z,0.70
2019-01-22T03:32:01.892Z,0.80
2019-01-22T03:35:12.696Z,0.70
2019-01-22T03:38:14.768Z,0.75
2019-01-22T03:41:00.321Z,1.00
2019-01-22T03:43:49.076Z,0.90
2019-01-22T03:46:42.778Z,0.80
2019-01-22T03:49:48.860Z,0.70
2019-01-22T03:52:59.544Z,1.52
2019-01-22T03:55:50.410Z,0.70
2019-01-22T03:58:20.101Z,0.80
2019-01-22T04:01:06.706Z,0.75
2019-01-22T04:03:36.376Z,0.90
2019-01-22T04:06:12.301Z,0.80
2019-01-22T04:08:45.246Z,0.82
2019-01-22T04:11:37.156Z,1.70
2019-01-22T04:14:06.724Z,3.37
2019-01-22T04:16:37.331Z,1.27
2019-01-22T04:19:06.737Z,0.70
2019-01-22T04:21:40.315Z,0.80
2019-01-22T04:25:05.941Z,0.70
2019-01-22T04:28:10.061Z,3.10
2019-01-22T04:31:20.426Z,1.27
2019-01-22T04:34:07.624Z,0.87
2019-01-22T04:37:24.181Z,5.50
2019-01-22T04:40:21.662Z,0.78
2019-01-22T04:43:32.492Z,0.90
2019-01-22T04:46:24.059Z,0.90
2019-01-22T04:49:26.330Z,0.80
2019-01-22T04:52:27.857Z,0.78
2019-01-22T04:55:53.743Z,0.73
2019-01-22T04:58:50.656Z,0.90
2019-01-22T05:02:06.885Z,2.75
2019-01-22T05:05:01.125Z,0.80
2019-01-22T05:07:40.151Z,0.70
2019-01-22T05:10:39.476Z,0.70
2019-01-22T05:13:16.936Z,1.10
2019-01-22T05:16:24.541Z,0.90
2019-01-22T05:19:40.118Z,0.80
2019-01-22T05:22:43.887Z,0.70
2019-01-22T05:25:42.873Z,3.13
2019-01-22T05:28:44.684Z,0.90
2019-01-22T05:31:52.470Z,0.70
2019-01-22T05:34:42.860Z,0.90
2019-01-22T05:37:42.044Z,1.12
2019-01-22T05:40:48.237Z,0.70
2019-01-22T05:43:58.971Z,0.80
2019-01-22T05:46:51.166Z,0.80
2019-01-22T05:49:58.030Z,0.70
2019-01-22T05:53:17.451Z,0.80
2019-01-22T05:55:49.818Z,0.80
2019-01-22T05:58:40.524Z,0.80
2019-01-22T06:01:41.477Z,0.70
2019-01-22T06:05:03.656Z,0.80
2019-01-22T06:07:45.200Z,0.72
2019-01-22T06:10:50.362Z,0.83
2019-01-22T06:13:55.670Z,0.85
2019-01-22T06:17:03.750Z,0.70
2019-01-22T06:20:05.163Z,0.73
2019-01-22T06:23:42.882Z,0.82
2019-01-22T06:26:37.376Z,0.75
2019-01-22T06:29:54.640Z,0.80
2019-01-22T06:32:49.884Z,0.72
2019-01-22T06:35:42.414Z,1.97
2019-01-22T06:38:58.790Z,0.70
2019-01-22T06:42:00.594Z,0.90
2019-01-22T06:45:08.726Z,57.00
2019-01-22T06:47:49.477Z,1.05
2019-01-22T06:50:59.973Z,0.80
2019-01-22T06:53:54.613Z,0.80
2019-01-22T06:56:51.256Z,0.90
2019-01-22T07:00:20.012Z,3.43
2019-01-22T07:03:32.085Z,0.90
2019-01-22T07:06:43.408Z,1.65
2019-01-22T07:09:38.568Z,0.80
2019-01-22T07:12:41.608Z,0.70
2019-01-22T07:16:00.812Z,2.77
2019-01-22T07:18:51.374Z,2.70
2019-01-22T07:21:41.376Z,0.80
2019-01-22T07:24:39.399Z,0.80
2019-01-22T07:27:45.020Z,2.20
2019-01-22T07:30:49.856Z,0.80
2019-01-22T07:34:01.119Z,0.80
2019-01-22T07:37:19.054Z,0.70
2019-01-22T07:40:33.382Z,0.70
2019-01-22T07:43:54.370Z,0.70
2019-01-22T07:47:09.764Z,0.70
2019-01-22T07:49:54.380Z,1.00
2019-01-22T07:53:05.574Z,0.90
2019-01-22T07:56:11.213Z,1.10
2019-01-22T07:59:40.048Z,0.80
2019-01-22T08:03:06.000Z,0.70
2019-01-22T08:06:28.644Z,0.72
2019-01-22T08:09:25.375Z,0.70
2019-01-22T08:12:35.889Z,1.00
2019-01-22T08:15:30.900Z,0.80
2019-01-22T08:18:36.385Z,0.70
2019-01-22T08:22:02.376Z,0.70
2019-01-22T08:24:45.190Z,1.63
2019-01-22T08:28:04.671Z,0.70
2019-01-22T08:31:20.920Z,0.93
2019-01-22T08:34:46.985Z,0.70
2019-01-22T08:38:15.634Z,0.80
2019-01-22T08:41:15.138Z,2.45
2019-01-22T08:44:27.898Z,6.80
2019-01-22T08:47:30.455Z,0.75
2019-01-22T08:50:18.530Z,0.70
2019-01-22T08:52:53.645Z,0.72
2019-01-22T08:56:10.571Z,0.70
2019-01-22T08:59:04.030Z,0.67
2019-01-22T09:01:47.207Z,0.70
2019-01-22T09:05:09.596Z,0.60
2019-01-22T09:08:09.944Z,0.70
2019-01-22T09:11:16.142Z,0.70
2019-01-22T09:14:32.775Z,2.50
2019-01-22T09:17:37.608Z,0.70
2019-01-22T09:20:27.559Z,0.70
2019-01-22T09:23:42.808Z,0.93
2019-01-22T09:26:42.444Z,0.90
2019-01-22T09:29:57.727Z,0.70
2019-01-22T09:33:13.984Z,0.70
2019-01-22T09:36:10.801Z,0.70
2019-01-22T09:38:40.386Z,0.70
2019-01-22T09:41:10.605Z,0.70
2019-01-22T09:43:39.973Z,0.60
2019-01-22T09:46:10.044Z,0.70
2019-01-22T09:48:39.966Z,4.40
2019-01-22T09:51:30.900Z,3.67
2019-01-22T09:54:05.218Z,0.80
2019-01-22T09:56:35.021Z,0.90
2019-01-22T09:59:04.699Z,0.93
2019-01-22T10:01:34.036Z,3.70
2019-01-22T10:04:03.809Z,0.70
2019-01-22T10:06:34.386Z,3.72
2019-01-22T10:09:05.989Z,0.87
2019-01-22T10:11:35.420Z,5.67
2019-01-22T10:14:05.326Z,1.43
2019-01-22T10:16:34.693Z,3.17
2019-01-22T10:19:04.120Z,1.00
2019-01-22T10:21:33.596Z,1.35
2019-01-22T10:24:03.033Z,0.60
2019-01-22T10:26:32.417Z,0.70
2019-01-22T10:29:01.690Z,2.03
2019-01-22T10:31:33.259Z,0.60
2019-01-22T10:34:02.526Z,8.60
2019-01-22T10:36:31.925Z,3.02
2019-01-22T10:39:01.379Z,0.70
2019-01-22T10:41:30.886Z,0.65
2019-01-22T10:44:00.602Z,4.00
2019-01-22T10:46:32.853Z,2.37
2019-01-22T10:49:02.201Z,4.53
2019-01-22T10:51:33.082Z,2.58
2019-01-22T10:54:02.473Z,10.60
2019-01-22T10:59:58.673Z,1.53
2019-01-22T11:02:57.645Z,3.65
2019-01-22T11:05:41.960Z,1.23
2019-01-22T11:08:16.758Z,3.47
2019-01-22T11:10:48.851Z,0.98
2019-01-22T11:19:50.724Z,1.00
2019-01-22T11:22:25.703Z,2.12
2019-01-22T11:25:13.614Z,5.17
2019-01-22T11:28:25.041Z,6.50
2019-01-22T11:31:05.705Z,2.00
2019-01-22T11:33:35.077Z,2.73
2019-01-22T11:36:04.903Z,3.62
2019-01-22T11:38:34.518Z,1.85
2019-01-22T11:41:03.964Z,11.50
2019-01-22T11:43:36.083Z,0.95
2019-01-22T11:46:06.049Z,4.60
2019-01-22T11:48:35.557Z,3.27
2019-01-22T11:51:08.798Z,2.08
2019-01-22T11:53:40.687Z,2.80
2019-01-22T11:56:32.925Z,1.02
2019-01-22T11:59:15.776Z,1.87
2019-01-22T12:01:46.473Z,14.80
2019-01-22T12:04:19.607Z,13.90
2019-01-22T12:06:53.051Z,12.20
2019-01-22T12:09:23.235Z,16.87
2019-01-22T12:11:54.938Z,18.07
2019-01-22T12:14:25.615Z,16.20
2019-01-22T12:16:57.579Z,15.57
2019-01-22T12:19:55.385Z,4.97
2019-01-22T12:22:25.121Z,2.73
2019-01-22T12:25:03.045Z,7.20
2019-01-22T12:27:32.677Z,0.90
2019-01-22T12:30:02.089Z,14.07
2019-01-22T12:32:31.428Z,18.30
2019-01-22T12:35:00.798Z,16.50
2019-01-22T12:37:32.702Z,21.73
2019-01-22T12:40:02.085Z,22.10
2019-01-22T12:42:31.925Z,22.17
2019-01-22T12:45:01.358Z,23.87
2019-01-22T12:47:30.725Z,23.87
2019-01-22T12:50:00.267Z,24.13
2019-01-22T12:52:29.661Z,23.93
2019-01-22T12:54:59.315Z,24.03
2019-01-22T12:57:28.777Z,25.67
2019-01-22T12:59:58.241Z,25.53
2019-01-22T13:02:27.629Z,25.53
2019-01-22T13:04:58.667Z,23.80
2019-01-22T13:07:28.029Z,24.50
2019-01-22T13:09:57.465Z,24.80
2019-01-22T13:12:26.858Z,24.27
2019-01-22T13:14:56.181Z,24.03
2019-01-22T13:17:25.562Z,25.73
2019-01-22T13:19:54.965Z,25.13
2019-01-22T13:22:24.393Z,26.10
2019-01-22T13:24:53.970Z,26.37
2019-01-22T13:27:23.329Z,25.13
2019-01-22T13:29:53.132Z,19.33
2019-01-22T13:32:22.533Z,25.43
2019-01-22T13:34:51.853Z,25.37
2019-01-22T13:37:21.217Z,26.67
2019-01-22T13:39:50.553Z,25.70
2019-01-22T13:42:19.909Z,26.10
2019-01-22T13:44:49.299Z,25.33
2019-01-22T13:47:18.637Z,24.03
2019-01-22T13:49:48.487Z,25.20
2019-01-22T13:52:19.729Z,23.53
2019-01-22T13:57:30.203Z,22.33
2019-01-22T13:59:59.815Z,25.27
2019-01-22T14:02:29.141Z,21.60
2019-01-22T14:04:58.438Z,21.83
2019-01-22T14:07:27.740Z,18.87
2019-01-22T14:09:58.229Z,16.70
2019-01-22T14:12:28.077Z,16.50
2019-01-22T14:14:58.580Z,14.13
2019-01-22T14:17:28.403Z,14.13
2019-01-22T14:20:07.737Z,14.23
2019-01-22T14:22:38.272Z,12.57
2019-01-22T14:25:36.043Z,11.40
2019-01-22T14:28:49.486Z,12.43
2019-01-22T14:31:24.691Z,11.10
2019-01-22T14:33:54.271Z,12.03
2019-01-22T14:36:24.849Z,10.17
2019-01-22T14:38:54.184Z,13.40
2019-01-22T14:41:23.561Z,14.63
2019-01-22T14:43:54.180Z,13.73
2019-01-22T14:46:23.532Z,9.07
2019-01-22T14:48:54.961Z,13.60
2019-01-22T14:51:24.341Z,12.55
2019-01-22T14:53:54.160Z,9.57
2019-01-22T14:56:25.055Z,13.38
2019-01-22T14:58:57.165Z,10.80
2019-01-22T15:01:28.156Z,11.35
2019-01-22T15:03:57.981Z,10.70
2019-01-22T15:06:27.430Z,9.48
2019-01-22T15:09:18.569Z,6.30
2019-01-22T15:11:48.302Z,7.83
2019-01-22T15:14:18.078Z,8.10
2019-01-22T15:16:47.686Z,5.78
2019-01-22T15:19:17.280Z,5.60
2019-01-22T15:21:47.546Z,9.33
2019-01-22T15:24:17.724Z,9.93
2019-01-22T15:26:48.746Z,11.25
2019-01-22T15:29:18.561Z,5.83
2019-01-22T15:31:48.151Z,5.30
2019-01-22T15:34:17.540Z,4.67
2019-01-22T15:36:47.280Z,4.05
2019-01-22T15:39:16.735Z,2.80
2019-01-22T15:41:46.026Z,3.72
2019-01-22T15:44:15.528Z,4.57
2019-01-22T15:46:45.010Z,2.95
2019-01-22T15:49:14.436Z,3.80
2019-01-22T15:51:43.770Z,0.70
2019-01-22T15:54:12.982Z,0.90
2019-01-22T15:56:46.446Z,0.72
2019-01-22T15:59:13.462Z,4.63
2019-01-22T16:01:43.060Z,1.85
2019-01-22T16:04:13.683Z,1.47
2019-01-22T16:06:43.291Z,0.90
2019-01-22T16:09:12.698Z,2.70
2019-01-22T16:11:42.103Z,4.40
2019-01-22T16:14:12.924Z,1.47
2019-01-22T16:16:46.334Z,2.40
2019-01-22T16:19:15.973Z,4.60
2019-01-22T16:21:45.454Z,3.83
2019-01-22T16:24:14.744Z,1.30
2019-01-22T16:26:44.125Z,5.60
2019-01-22T16:29:14.524Z,3.25
2019-01-22T16:31:44.072Z,1.45
2019-01-22T16:34:13.770Z,1.10
2019-01-22T16:36:43.226Z,5.42
2019-01-22T16:39:12.740Z,3.60
2019-01-22T16:41:42.502Z,2.40
2019-01-22T16:44:12.288Z,1.63
2019-01-22T16:46:46.320Z,2.33
2019-01-22T16:49:16.144Z,7.30
2019-01-22T16:51:57.048Z,2.02
2019-01-22T16:54:33.598Z,1.30
2019-01-22T17:00:50.432Z,1.63
2019-01-22T17:03:31.314Z,2.65
2019-01-22T17:06:45.158Z,16.27
2019-01-22T17:09:25.481Z,2.87
2019-01-22T17:12:05.319Z,3.98
2019-01-22T17:14:37.870Z,1.43
2019-01-22T17:17:07.318Z,2.90
2019-01-22T17:22:32.768Z,6.83
2019-01-22T17:25:06.130Z,3.90
2019-01-22T17:28:15.717Z,0.82
2019-01-22T17:30:46.630Z,0.80
2019-01-22T17:33:31.576Z,2.52
2019-01-22T17:36:04.991Z,4.10
2019-01-22T17:41:43.406Z,1.15
2019-01-22T17:44:12.718Z,0.90
2019-01-22T17:46:41.997Z,0.80
2019-01-22T17:49:11.528Z,0.70
2019-01-22T17:51:43.677Z,2.60
2019-01-22T17:54:31.134Z,1.83
2019-01-22T17:57:00.674Z,3.08
2019-01-22T17:59:30.240Z,1.00
2019-01-22T18:01:59.684Z,0.90
2019-01-22T18:04:29.474Z,0.90
2019-01-22T18:07:00.366Z,4.37
2019-01-22T18:09:31.314Z,4.30
2019-01-22T18:12:00.772Z,2.08
2019-01-22T18:14:30.187Z,6.03
2019-01-22T18:17:03.832Z,3.77
2019-01-22T18:19:33.173Z,0.90
2019-01-22T18:22:02.666Z,0.80
2019-01-22T18:24:33.762Z,2.90
2019-01-22T18:27:03.517Z,11.00
2019-01-22T18:29:36.310Z,2.10
2019-01-22T18:32:41.618Z,2.25
2019-01-22T18:35:17.494Z,1.73
2019-01-22T18:37:46.994Z,1.55
2019-01-22T18:40:16.310Z,2.60
2019-01-22T18:42:47.730Z,2.35
2019-01-22T18:45:17.816Z,0.80
2019-01-22T18:47:47.172Z,7.08
2019-01-22T18:50:19.963Z,1.93
2019-01-22T18:52:49.410Z,1.75
2019-01-22T18:55:19.126Z,1.20
2019-01-22T18:57:48.648Z,0.70
2019-01-22T19:00:21.224Z,3.37
2019-01-22T19:02:50.651Z,2.50
2019-01-22T19:05:22.576Z,4.23
2019-01-22T19:07:55.808Z,1.30
2019-01-22T19:10:54.958Z,5.53
2019-01-22T19:13:25.504Z,1.82
2019-01-22T19:15:55.214Z,2.75
2019-01-22T19:18:25.397Z,1.92
2019-01-22T19:20:56.054Z,3.70
2019-01-22T19:23:25.820Z,0.90
2019-01-22T19:25:55.118Z,0.80
2019-01-22T19:28:25.580Z,2.45
2019-01-22T19:31:20.536Z,6.15
2019-01-22T19:33:51.194Z,0.93
2019-01-22T19:36:46.065Z,3.35
2019-01-22T19:39:37.652Z,3.33
2019-01-22T19:45:07.555Z,0.80
2019-01-22T19:48:07.545Z,2.22
2019-01-22T19:50:39.306Z,6.08
2019-01-22T19:53:09.649Z,4.33
2019-01-22T19:55:51.366Z,2.77
2019-01-22T19:58:20.955Z,1.85
2019-01-22T20:00:50.960Z,0.95
2019-01-22T20:03:51.966Z,3.95
2019-01-22T20:06:25.396Z,1.98
2019-01-22T20:08:55.418Z,14.75
2019-01-22T20:11:25.795Z,4.00
2019-01-22T20:13:55.966Z,4.17
2019-01-22T20:16:25.601Z,2.77
2019-01-22T20:18:55.546Z,1.27
2019-01-22T20:21:25.104Z,1.40
2019-01-22T20:23:54.821Z,2.20
2019-01-22T20:26:24.422Z,4.75
2019-01-22T20:28:53.824Z,2.10
2019-01-22T20:31:23.607Z,1.37
2019-01-22T20:33:53.280Z,0.80
2019-01-22T20:36:22.806Z,2.25
2019-01-22T20:38:52.217Z,1.17
2019-01-22T20:41:24.931Z,0.82
2019-01-22T20:43:54.402Z,0.97
2019-01-22T20:46:24.100Z,1.15
2019-01-22T20:48:56.163Z,3.07
2019-01-22T20:51:25.870Z,0.60
2019-01-22T20:53:55.956Z,4.03
2019-01-22T20:56:25.418Z,2.37
2019-01-22T20:58:55.145Z,4.10
2019-01-22T21:01:25.094Z,20.25
2019-01-22T21:03:54.885Z,1.40
2019-01-22T21:06:24.249Z,2.75
2019-01-22T21:09:03.123Z,2.35
2019-01-22T21:11:33.411Z,1.15
2019-01-22T21:14:05.007Z,2.63
2019-01-22T21:16:38.766Z,2.65
2019-01-22T21:19:08.274Z,2.60
2019-01-22T21:21:37.715Z,2.20
2019-01-22T21:24:07.199Z,2.00
2019-01-22T21:26:36.626Z,0.80
2019-01-22T21:29:06.163Z,2.20
2019-01-22T21:31:35.529Z,1.82
2019-01-22T21:34:05.197Z,1.87
2019-01-22T21:36:37.007Z,1.02
2019-01-22T21:39:07.952Z,1.50
2019-01-22T21:41:37.553Z,1.02
2019-01-22T21:44:07.047Z,2.23
2019-01-22T21:46:36.666Z,2.08
2019-01-22T21:49:06.139Z,3.27
2019-01-22T21:51:35.473Z,0.90
2019-01-22T21:54:04.911Z,1.43
2019-01-22T21:56:34.306Z,3.35
2019-01-22T21:59:03.762Z,0.78
2019-01-22T22:01:33.274Z,0.90
2019-01-22T22:04:02.699Z,3.27
2019-01-22T22:06:32.139Z,5.20
2019-01-22T22:09:01.555Z,2.08
2019-01-22T22:11:37.299Z,2.90
2019-01-22T22:14:45.233Z,1.50
2019-01-22T22:17:14.658Z,0.70
2019-01-22T22:19:44.002Z,1.43
2019-01-22T22:22:13.671Z,3.58
2019-01-22T22:24:43.103Z,2.17
2019-01-22T22:27:12.503Z,3.45
2019-01-22T22:29:42.000Z,1.00
2019-01-22T22:32:11.366Z,1.12
2019-01-22T22:34:40.907Z,1.45
2019-01-22T22:37:10.307Z,1.30
2019-01-22T22:39:40.039Z,3.23
2019-01-22T22:42:09.554Z,0.90
2019-01-22T22:44:39.195Z,0.80
2019-01-22T22:47:08.672Z,0.70
2019-01-22T22:49:38.932Z,3.43
2019-01-22T22:52:08.274Z,4.42
2019-01-22T22:54:38.303Z,1.47
2019-01-22T22:57:09.355Z,1.80
2019-01-22T22:59:39.970Z,1.87
2019-01-22T23:02:09.615Z,0.70
2019-01-22T23:04:39.380Z,3.87
2019-01-22T23:07:08.775Z,1.37
2019-01-22T23:09:38.211Z,1.50
2019-01-22T23:12:07.595Z,2.10
2019-01-22T23:14:37.154Z,0.77
2019-01-22T23:17:06.706Z,0.90
2019-01-22T23:19:36.118Z,3.02
2019-01-22T23:22:05.922Z,0.70
2019-01-22T23:24:35.327Z,2.87
2019-01-22T23:27:04.911Z,0.70
2019-01-22T23:29:34.299Z,1.07
2019-01-22T23:32:03.763Z,2.90
2019-01-22T23:34:33.264Z,3.17
2019-01-22T23:37:02.799Z,1.00
2019-01-22T23:39:33.405Z,0.73
2019-01-22T23:42:02.855Z,3.37
2019-01-22T23:44:32.282Z,2.27
2019-01-22T23:47:01.825Z,6.67
2019-01-22T23:49:31.357Z,2.03
2019-01-22T23:52:00.807Z,2.20
2019-01-22T23:54:30.102Z,2.65
2019-01-22T23:56:59.531Z,3.35
2019-01-22T23:59:28.834Z,0.60
